Fruit Heights, Utah
Current Conditions -  °F | °C
As of 9:58 AM on Thursday 30 Oct 2014 (Local Time) from KHIF Reporting Station
Few Clouds Few Clouds  
Wind Chill: 41°   Ceiling: Unl
Heat Index: 48°   Visibility: 10mi
Dew Point: 27°   Wind: 18mph
Humidity: 44%   Direction: 110°ESE
Pressure: 30.27"   Gusts: NA
Location:  41.0365°N, 111.927°W
Report Text: KHIF 301558Z 11016KT 10SM FEW200 09/M03 A3027 RMK AO2A PK WND 09026/26 SLP229 MIDFLD WND 060/18G23KT T00891029
Loading
Personal Weather Stations






























Interactive Weather Map
Tropical Storm Tracking
New forecast layout! Learn more

10-Day Weather Forecast

Advertisements
Track Severe Weather on mobile